sensor_id;sensor_type;location;lat;lon;timestamp;P1;durP1;ratioP1;P2;durP2;ratioP2
49109;SDS011;34921;52.320;16.142;2022-12-18T00:01:27;52.48;;;21.77;;
49109;SDS011;34921;52.320;16.142;2022-12-18T00:04:05;55.15;;;22.45;;
49109;SDS011;34921;52.320;16.142;2022-12-18T00:06:35;55.05;;;21.82;;
49109;SDS011;34921;52.320;16.142;2022-12-18T00:09:03;92.97;;;33.28;;
49109;SDS011;34921;52.320;16.142;2022-12-18T00:11:31;59.57;;;22.73;;
49109;SDS011;34921;52.320;16.142;2022-12-18T00:13:59;51.02;;;19.90;;
49109;SDS011;34921;52.320;16.142;2022-12-18T00:16:27;59.67;;;23.17;;
49109;SDS011;34921;52.320;16.142;2022-12-18T00:18:56;59.40;;;23.18;;
49109;SDS011;34921;52.320;16.142;2022-12-18T00:21:24;45.25;;;17.57;;
49109;SDS011;34921;52.320;16.142;2022-12-18T00:23:53;51.68;;;20.02;;
49109;SDS011;34921;52.320;16.142;2022-12-18T00:26:25;54.10;;;21.37;;
49109;SDS011;34921;52.320;16.142;2022-12-18T00:28:54;54.10;;;21.12;;
49109;SDS011;34921;52.320;16.142;2022-12-18T00:31:25;62.48;;;24.87;;
49109;SDS011;34921;52.320;16.142;2022-12-18T00:33:54;64.20;;;24.82;;
49109;SDS011;34921;52.320;16.142;2022-12-18T00:36:30;68.78;;;30.20;;
49109;SDS011;34921;52.320;16.142;2022-12-18T00:39:00;61.42;;;25.25;;
49109;SDS011;34921;52.320;16.142;2022-12-18T00:44:17;55.70;;;22.48;;
49109;SDS011;34921;52.320;16.142;2022-12-18T00:46:46;53.15;;;20.82;;
49109;SDS011;34921;52.320;16.142;2022-12-18T00:49:15;52.53;;;19.35;;
49109;SDS011;34921;52.320;16.142;2022-12-18T00:51:45;51.40;;;20.95;;
49109;SDS011;34921;52.320;16.142;2022-12-18T00:54:13;56.77;;;23.18;;
49109;SDS011;34921;52.320;16.142;2022-12-18T00:56:41;59.47;;;22.63;;
49109;SDS011;34921;52.320;16.142;2022-12-18T00:59:09;54.23;;;19.07;;
49109;SDS011;34921;52.320;16.142;2022-12-18T01:01:36;56.37;;;21.03;;
49109;SDS011;34921;52.320;16.142;2022-12-18T01:04:04;70.87;;;26.55;;
49109;SDS011;34921;52.320;16.142;2022-12-18T01:06:33;67.67;;;25.48;;
49109;SDS011;34921;52.320;16.142;2022-12-18T01:09:01;58.28;;;21.57;;
49109;SDS011;34921;52.320;16.142;2022-12-18T01:11:29;55.55;;;20.40;;
49109;SDS011;34921;52.320;16.142;2022-12-18T01:13:57;50.80;;;19.12;;
49109;SDS011;34921;52.320;16.142;2022-12-18T01:16:25;47.98;;;19.90;;
49109;SDS011;34921;52.320;16.142;2022-12-18T01:18:53;55.80;;;21.48;;
49109;SDS011;34921;52.320;16.142;2022-12-18T01:21:22;53.83;;;21.80;;
49109;SDS011;34921;52.320;16.142;2022-12-18T01:23:51;59.65;;;21.73;;
49109;SDS011;34921;52.320;16.142;2022-12-18T01:26:21;60.80;;;21.15;;
49109;SDS011;34921;52.320;16.142;2022-12-18T01:28:49;55.98;;;20.30;;
49109;SDS011;34921;52.320;16.142;2022-12-18T01:31:18;57.15;;;20.37;;
49109;SDS011;34921;52.320;16.142;2022-12-18T01:33:50;54.58;;;19.87;;
49109;SDS011;34921;52.320;16.142;2022-12-18T01:36:39;56.15;;;20.68;;
49109;SDS011;34921;52.320;16.142;2022-12-18T01:39:09;54.18;;;19.17;;
49109;SDS011;34921;52.320;16.142;2022-12-18T01:41:38;50.17;;;18.85;;
49109;SDS011;34921;52.320;16.142;2022-12-18T01:50:19;52.43;;;17.55;;
49109;SDS011;34921;52.320;16.142;2022-12-18T01:52:50;62.73;;;22.25;;
49109;SDS011;34921;52.320;16.142;2022-12-18T01:55:22;62.80;;;22.65;;
49109;SDS011;34921;52.320;16.142;2022-12-18T01:57:52;62.85;;;20.70;;
49109;SDS011;34921;52.320;16.142;2022-12-18T02:00:22;72.22;;;25.45;;
49109;SDS011;34921;52.320;16.142;2022-12-18T02:15:55;68.60;;;22.75;;
49109;SDS011;34921;52.320;16.142;2022-12-18T02:18:27;54.00;;;18.42;;
49109;SDS011;34921;52.320;16.142;2022-12-18T02:23:51;66.30;;;20.43;;
49109;SDS011;34921;52.320;16.142;2022-12-18T02:26:59;55.73;;;19.40;;
49109;SDS011;34921;52.320;16.142;2022-12-18T02:29:31;55.33;;;20.10;;
49109;SDS011;34921;52.320;16.142;2022-12-18T02:32:04;57.17;;;18.23;;
49109;SDS011;34921;52.320;16.142;2022-12-18T02:34:36;64.53;;;19.95;;
49109;SDS011;34921;52.320;16.142;2022-12-18T02:37:07;67.50;;;21.57;;
49109;SDS011;34921;52.320;16.142;2022-12-18T02:39:38;78.47;;;24.35;;
49109;SDS011;34921;52.320;16.142;2022-12-18T02:42:08;67.90;;;22.60;;
49109;SDS011;34921;52.320;16.142;2022-12-18T02:44:43;73.37;;;25.20;;
49109;SDS011;34921;52.320;16.142;2022-12-18T02:47:13;81.40;;;26.77;;
49109;SDS011;34921;52.320;16.142;2022-12-18T02:52:48;74.80;;;18.97;;
49109;SDS011;34921;52.320;16.142;2022-12-18T02:58:05;69.53;;;24.30;;
49109;SDS011;34921;52.320;16.142;2022-12-18T03:01:01;62.97;;;22.37;;
49109;SDS011;34921;52.320;16.142;2022-12-18T03:03:57;64.65;;;22.15;;
49109;SDS011;34921;52.320;16.142;2022-12-18T03:06:30;70.50;;;22.73;;
49109;SDS011;34921;52.320;16.142;2022-12-18T03:09:02;75.70;;;24.60;;
49109;SDS011;34921;52.320;16.142;2022-12-18T03:11:36;68.15;;;22.73;;
49109;SDS011;34921;52.320;16.142;2022-12-18T03:16:54;62.67;;;22.48;;
49109;SDS011;34921;52.320;16.142;2022-12-18T03:19:24;57.10;;;19.00;;
49109;SDS011;34921;52.320;16.142;2022-12-18T03:21:55;61.95;;;19.98;;
49109;SDS011;34921;52.320;16.142;2022-12-18T03:26:54;67.08;;;21.35;;
49109;SDS011;34921;52.320;16.142;2022-12-18T03:29:26;56.83;;;20.97;;
49109;SDS011;34921;52.320;16.142;2022-12-18T03:32:01;63.38;;;23.02;;
49109;SDS011;34921;52.320;16.142;2022-12-18T03:34:33;64.05;;;21.97;;
49109;SDS011;34921;52.320;16.142;2022-12-18T03:37:02;69.25;;;23.00;;
49109;SDS011;34921;52.320;16.142;2022-12-18T03:39:31;70.08;;;23.10;;
49109;SDS011;34921;52.320;16.142;2022-12-18T03:47:28;62.98;;;21.35;;
49109;SDS011;34921;52.320;16.142;2022-12-18T03:50:03;58.63;;;20.57;;
49109;SDS011;34921;52.320;16.142;2022-12-18T03:52:41;61.53;;;23.67;;
49109;SDS011;34921;52.320;16.142;2022-12-18T03:55:18;72.03;;;24.45;;
49109;SDS011;34921;52.320;16.142;2022-12-18T03:57:47;68.40;;;24.23;;
49109;SDS011;34921;52.320;16.142;2022-12-18T04:00:16;76.07;;;26.73;;
49109;SDS011;34921;52.320;16.142;2022-12-18T04:02:48;67.12;;;23.60;;
49109;SDS011;34921;52.320;16.142;2022-12-18T04:05:22;77.27;;;27.57;;
49109;SDS011;34921;52.320;16.142;2022-12-18T04:07:52;72.60;;;25.70;;
49109;SDS011;34921;52.320;16.142;2022-12-18T04:10:21;71.42;;;26.12;;
49109;SDS011;34921;52.320;16.142;2022-12-18T04:12:49;79.30;;;27.07;;
49109;SDS011;34921;52.320;16.142;2022-12-18T04:15:17;68.87;;;25.45;;
49109;SDS011;34921;52.320;16.142;2022-12-18T04:17:48;65.80;;;24.92;;
49109;SDS011;34921;52.320;16.142;2022-12-18T04:20:16;76.35;;;27.55;;
49109;SDS011;34921;52.320;16.142;2022-12-18T04:22:45;67.05;;;25.10;;
49109;SDS011;34921;52.320;16.142;2022-12-18T04:25:13;79.47;;;28.80;;
49109;SDS011;34921;52.320;16.142;2022-12-18T04:27:41;78.80;;;28.83;;
49109;SDS011;34921;52.320;16.142;2022-12-18T04:30:09;77.37;;;30.12;;
49109;SDS011;34921;52.320;16.142;2022-12-18T04:32:37;76.75;;;29.25;;
49109;SDS011;34921;52.320;16.142;2022-12-18T04:35:05;68.22;;;26.90;;
49109;SDS011;34921;52.320;16.142;2022-12-18T04:37:37;68.93;;;24.93;;
49109;SDS011;34921;52.320;16.142;2022-12-18T04:40:05;78.52;;;25.80;;
49109;SDS011;34921;52.320;16.142;2022-12-18T04:42:34;68.50;;;26.05;;
49109;SDS011;34921;52.320;16.142;2022-12-18T04:45:01;69.80;;;26.42;;
49109;SDS011;34921;52.320;16.142;2022-12-18T04:47:29;65.85;;;25.62;;
49109;SDS011;34921;52.320;16.142;2022-12-18T04:49:58;63.77;;;24.17;;
49109;SDS011;34921;52.320;16.142;2022-12-18T04:52:25;62.90;;;23.40;;
49109;SDS011;34921;52.320;16.142;2022-12-18T04:54:53;73.67;;;24.67;;
49109;SDS011;34921;52.320;16.142;2022-12-18T04:57:21;70.72;;;27.27;;
49109;SDS011;34921;52.320;16.142;2022-12-18T04:59:49;74.65;;;25.12;;
49109;SDS011;34921;52.320;16.142;2022-12-18T05:02:17;58.87;;;23.33;;
49109;SDS011;34921;52.320;16.142;2022-12-18T05:04:44;72.60;;;24.70;;
49109;SDS011;34921;52.320;16.142;2022-12-18T05:07:12;72.05;;;25.50;;
49109;SDS011;34921;52.320;16.142;2022-12-18T05:09:40;75.62;;;28.12;;
49109;SDS011;34921;52.320;16.142;2022-12-18T05:12:08;75.67;;;26.82;;
49109;SDS011;34921;52.320;16.142;2022-12-18T05:14:36;71.80;;;25.10;;
49109;SDS011;34921;52.320;16.142;2022-12-18T05:17:04;72.25;;;27.37;;
49109;SDS011;34921;52.320;16.142;2022-12-18T05:19:32;75.47;;;26.70;;
49109;SDS011;34921;52.320;16.142;2022-12-18T05:21:59;76.80;;;26.57;;
49109;SDS011;34921;52.320;16.142;2022-12-18T05:24:28;69.73;;;25.60;;
49109;SDS011;34921;52.320;16.142;2022-12-18T05:26:56;70.87;;;26.42;;
49109;SDS011;34921;52.320;16.142;2022-12-18T05:29:24;70.57;;;25.65;;
49109;SDS011;34921;52.320;16.142;2022-12-18T05:31:52;62.58;;;23.87;;
49109;SDS011;34921;52.320;16.142;2022-12-18T05:34:19;72.78;;;26.57;;
49109;SDS011;34921;52.320;16.142;2022-12-18T05:36:47;57.03;;;23.35;;
49109;SDS011;34921;52.320;16.142;2022-12-18T05:39:15;54.88;;;23.00;;
49109;SDS011;34921;52.320;16.142;2022-12-18T05:41:43;53.83;;;22.67;;
49109;SDS011;34921;52.320;16.142;2022-12-18T05:44:11;55.00;;;22.95;;
49109;SDS011;34921;52.320;16.142;2022-12-18T05:46:38;52.03;;;23.12;;
49109;SDS011;34921;52.320;16.142;2022-12-18T05:49:08;51.13;;;21.70;;
49109;SDS011;34921;52.320;16.142;2022-12-18T05:51:36;49.30;;;20.20;;
49109;SDS011;34921;52.320;16.142;2022-12-18T05:54:04;51.48;;;20.30;;
49109;SDS011;34921;52.320;16.142;2022-12-18T05:56:32;52.67;;;22.02;;
49109;SDS011;34921;52.320;16.142;2022-12-18T05:58:59;55.20;;;22.07;;
49109;SDS011;34921;52.320;16.142;2022-12-18T06:01:27;56.65;;;22.98;;
49109;SDS011;34921;52.320;16.142;2022-12-18T06:03:55;53.00;;;21.37;;
49109;SDS011;34921;52.320;16.142;2022-12-18T06:06:24;54.15;;;22.55;;
49109;SDS011;34921;52.320;16.142;2022-12-18T06:08:54;55.10;;;22.67;;
49109;SDS011;34921;52.320;16.142;2022-12-18T06:11:23;49.50;;;24.15;;
49109;SDS011;34921;52.320;16.142;2022-12-18T06:13:53;49.15;;;21.85;;
49109;SDS011;34921;52.320;16.142;2022-12-18T06:16:22;52.38;;;22.32;;
49109;SDS011;34921;52.320;16.142;2022-12-18T06:18:50;50.67;;;22.70;;
49109;SDS011;34921;52.320;16.142;2022-12-18T06:21:18;55.77;;;23.50;;
49109;SDS011;34921;52.320;16.142;2022-12-18T06:23:45;60.20;;;25.97;;
49109;SDS011;34921;52.320;16.142;2022-12-18T06:26:15;50.92;;;22.05;;
49109;SDS011;34921;52.320;16.142;2022-12-18T06:28:43;47.50;;;21.20;;
49109;SDS011;34921;52.320;16.142;2022-12-18T06:31:11;39.92;;;18.67;;
49109;SDS011;34921;52.320;16.142;2022-12-18T06:33:39;41.15;;;21.55;;
49109;SDS011;34921;52.320;16.142;2022-12-18T06:36:08;44.48;;;21.07;;
49109;SDS011;34921;52.320;16.142;2022-12-18T06:38:39;43.70;;;20.88;;
49109;SDS011;34921;52.320;16.142;2022-12-18T06:43:36;48.23;;;21.25;;
49109;SDS011;34921;52.320;16.142;2022-12-18T06:46:04;48.25;;;20.12;;
49109;SDS011;34921;52.320;16.142;2022-12-18T06:48:32;42.95;;;19.27;;
49109;SDS011;34921;52.320;16.142;2022-12-18T06:51:00;41.20;;;17.65;;
49109;SDS011;34921;52.320;16.142;2022-12-18T06:53:28;36.63;;;16.75;;
49109;SDS011;34921;52.320;16.142;2022-12-18T06:56:01;39.18;;;16.77;;
49109;SDS011;34921;52.320;16.142;2022-12-18T06:58:32;40.30;;;16.90;;
49109;SDS011;34921;52.320;16.142;2022-12-18T07:01:01;39.50;;;16.80;;
49109;SDS011;34921;52.320;16.142;2022-12-18T07:03:30;36.48;;;16.20;;
49109;SDS011;34921;52.320;16.142;2022-12-18T07:05:58;41.30;;;18.17;;
49109;SDS011;34921;52.320;16.142;2022-12-18T07:08:26;43.03;;;19.23;;
49109;SDS011;34921;52.320;16.142;2022-12-18T07:10:54;43.08;;;22.10;;
49109;SDS011;34921;52.320;16.142;2022-12-18T07:13:22;40.60;;;18.77;;
49109;SDS011;34921;52.320;16.142;2022-12-18T07:15:50;41.13;;;18.98;;
49109;SDS011;34921;52.320;16.142;2022-12-18T07:18:17;39.08;;;17.80;;
49109;SDS011;34921;52.320;16.142;2022-12-18T07:20:45;45.93;;;20.27;;
49109;SDS011;34921;52.320;16.142;2022-12-18T07:23:13;39.90;;;19.00;;
49109;SDS011;34921;52.320;16.142;2022-12-18T07:25:41;43.17;;;19.17;;
49109;SDS011;34921;52.320;16.142;2022-12-18T07:28:10;42.90;;;21.57;;
49109;SDS011;34921;52.320;16.142;2022-12-18T07:30:39;38.03;;;16.87;;
49109;SDS011;34921;52.320;16.142;2022-12-18T07:33:07;36.97;;;17.90;;
49109;SDS011;34921;52.320;16.142;2022-12-18T07:35:36;41.65;;;18.90;;
49109;SDS011;34921;52.320;16.142;2022-12-18T07:38:04;65.45;;;29.40;;
49109;SDS011;34921;52.320;16.142;2022-12-18T07:40:32;45.05;;;21.77;;
49109;SDS011;34921;52.320;16.142;2022-12-18T07:43:00;39.83;;;18.85;;
49109;SDS011;34921;52.320;16.142;2022-12-18T07:45:28;37.95;;;18.45;;
49109;SDS011;34921;52.320;16.142;2022-12-18T07:47:56;36.73;;;17.35;;
49109;SDS011;34921;52.320;16.142;2022-12-18T07:50:24;33.25;;;16.45;;
49109;SDS011;34921;52.320;16.142;2022-12-18T07:52:52;30.57;;;14.10;;
49109;SDS011;34921;52.320;16.142;2022-12-18T07:55:20;51.53;;;22.45;;
49109;SDS011;34921;52.320;16.142;2022-12-18T07:57:48;41.88;;;18.80;;
49109;SDS011;34921;52.320;16.142;2022-12-18T08:00:16;49.90;;;22.05;;
49109;SDS011;34921;52.320;16.142;2022-12-18T08:02:45;49.48;;;21.62;;
49109;SDS011;34921;52.320;16.142;2022-12-18T08:05:13;44.45;;;20.82;;
49109;SDS011;34921;52.320;16.142;2022-12-18T08:07:41;43.73;;;20.65;;
49109;SDS011;34921;52.320;16.142;2022-12-18T08:10:09;38.47;;;18.70;;
49109;SDS011;34921;52.320;16.142;2022-12-18T08:12:37;36.48;;;17.75;;
49109;SDS011;34921;52.320;16.142;2022-12-18T08:15:05;39.40;;;19.80;;
49109;SDS011;34921;52.320;16.142;2022-12-18T08:17:34;37.83;;;20.87;;
49109;SDS011;34921;52.320;16.142;2022-12-18T08:20:02;103.55;;;46.20;;
49109;SDS011;34921;52.320;16.142;2022-12-18T08:22:30;61.10;;;29.02;;
49109;SDS011;34921;52.320;16.142;2022-12-18T08:24:58;112.95;;;56.50;;
49109;SDS011;34921;52.320;16.142;2022-12-18T08:27:26;91.90;;;40.95;;
49109;SDS011;34921;52.320;16.142;2022-12-18T08:29:54;56.90;;;25.82;;
49109;SDS011;34921;52.320;16.142;2022-12-18T08:32:22;40.80;;;20.70;;
49109;SDS011;34921;52.320;16.142;2022-12-18T08:34:51;52.15;;;23.90;;
49109;SDS011;34921;52.320;16.142;2022-12-18T08:37:20;43.63;;;20.95;;
49109;SDS011;34921;52.320;16.142;2022-12-18T08:39:48;42.90;;;21.20;;
49109;SDS011;34921;52.320;16.142;2022-12-18T08:42:16;49.60;;;23.12;;
49109;SDS011;34921;52.320;16.142;2022-12-18T08:45:03;85.03;;;49.88;;
49109;SDS011;34921;52.320;16.142;2022-12-18T08:47:31;72.00;;;40.97;;
49109;SDS011;34921;52.320;16.142;2022-12-18T08:49:59;44.87;;;26.90;;
49109;SDS011;34921;52.320;16.142;2022-12-18T08:52:27;41.42;;;20.68;;
49109;SDS011;34921;52.320;16.142;2022-12-18T08:54:55;42.10;;;21.50;;
49109;SDS011;34921;52.320;16.142;2022-12-18T08:57:23;39.85;;;19.73;;
49109;SDS011;34921;52.320;16.142;2022-12-18T08:59:51;55.17;;;29.95;;
49109;SDS011;34921;52.320;16.142;2022-12-18T09:02:20;43.45;;;22.37;;
49109;SDS011;34921;52.320;16.142;2022-12-18T09:04:48;43.60;;;22.93;;
49109;SDS011;34921;52.320;16.142;2022-12-18T09:07:16;52.85;;;24.52;;
49109;SDS011;34921;52.320;16.142;2022-12-18T09:09:44;47.90;;;23.38;;
49109;SDS011;34921;52.320;16.142;2022-12-18T09:12:12;48.42;;;23.40;;
49109;SDS011;34921;52.320;16.142;2022-12-18T09:14:40;45.33;;;21.25;;
49109;SDS011;34921;52.320;16.142;2022-12-18T09:17:08;43.35;;;22.20;;
49109;SDS011;34921;52.320;16.142;2022-12-18T09:19:36;43.52;;;21.85;;
49109;SDS011;34921;52.320;16.142;2022-12-18T09:22:05;42.67;;;22.13;;
49109;SDS011;34921;52.320;16.142;2022-12-18T09:24:33;41.17;;;21.33;;
49109;SDS011;34921;52.320;16.142;2022-12-18T09:27:01;40.75;;;21.40;;
49109;SDS011;34921;52.320;16.142;2022-12-18T09:29:29;48.23;;;26.30;;
49109;SDS011;34921;52.320;16.142;2022-12-18T09:31:57;50.40;;;24.80;;
49109;SDS011;34921;52.320;16.142;2022-12-18T09:34:25;48.87;;;24.80;;
49109;SDS011;34921;52.320;16.142;2022-12-18T09:36:53;94.05;;;39.83;;
49109;SDS011;34921;52.320;16.142;2022-12-18T09:39:21;93.60;;;40.67;;
49109;SDS011;34921;52.320;16.142;2022-12-18T09:41:51;62.05;;;30.57;;
49109;SDS011;34921;52.320;16.142;2022-12-18T09:49:48;47.13;;;25.50;;
49109;SDS011;34921;52.320;16.142;2022-12-18T09:52:37;45.25;;;22.98;;
49109;SDS011;34921;52.320;16.142;2022-12-18T09:55:13;75.57;;;35.10;;
49109;SDS011;34921;52.320;16.142;2022-12-18T09:57:47;59.70;;;28.07;;
49109;SDS011;34921;52.320;16.142;2022-12-18T10:00:20;79.37;;;37.25;;
49109;SDS011;34921;52.320;16.142;2022-12-18T10:02:53;96.95;;;41.60;;
49109;SDS011;34921;52.320;16.142;2022-12-18T10:08:06;81.72;;;39.00;;
49109;SDS011;34921;52.320;16.142;2022-12-18T10:13:28;58.73;;;28.67;;
49109;SDS011;34921;52.320;16.142;2022-12-18T10:21:34;59.67;;;28.42;;
49109;SDS011;34921;52.320;16.142;2022-12-18T10:27:23;64.05;;;32.40;;
49109;SDS011;34921;52.320;16.142;2022-12-18T10:29:53;64.27;;;30.90;;
49109;SDS011;34921;52.320;16.142;2022-12-18T10:32:22;61.90;;;32.00;;
49109;SDS011;34921;52.320;16.142;2022-12-18T10:34:56;63.17;;;32.10;;
49109;SDS011;34921;52.320;16.142;2022-12-18T10:42:40;118.50;;;52.03;;
49109;SDS011;34921;52.320;16.142;2022-12-18T10:45:10;74.00;;;35.30;;
49109;SDS011;34921;52.320;16.142;2022-12-18T10:47:50;54.25;;;25.48;;
49109;SDS011;34921;52.320;16.142;2022-12-18T10:50:25;62.95;;;28.45;;
49109;SDS011;34921;52.320;16.142;2022-12-18T10:53:00;47.58;;;22.45;;
49109;SDS011;34921;52.320;16.142;2022-12-18T10:55:35;60.80;;;29.70;;
49109;SDS011;34921;52.320;16.142;2022-12-18T10:58:23;63.05;;;32.05;;
49109;SDS011;34921;52.320;16.142;2022-12-18T11:01:12;72.10;;;32.35;;
49109;SDS011;34921;52.320;16.142;2022-12-18T11:03:42;80.80;;;35.40;;
49109;SDS011;34921;52.320;16.142;2022-12-18T11:06:14;43.23;;;23.60;;
49109;SDS011;34921;52.320;16.142;2022-12-18T11:09:04;74.20;;;29.63;;
49109;SDS011;34921;52.320;16.142;2022-12-18T11:11:33;77.30;;;33.55;;
49109;SDS011;34921;52.320;16.142;2022-12-18T11:14:05;85.77;;;36.95;;
49109;SDS011;34921;52.320;16.142;2022-12-18T11:16:48;68.95;;;39.45;;
49109;SDS011;34921;52.320;16.142;2022-12-18T11:19:24;55.30;;;27.02;;
49109;SDS011;34921;52.320;16.142;2022-12-18T11:22:01;67.15;;;31.30;;
49109;SDS011;34921;52.320;16.142;2022-12-18T11:27:25;54.90;;;29.47;;
49109;SDS011;34921;52.320;16.142;2022-12-18T11:30:06;60.27;;;29.07;;
49109;SDS011;34921;52.320;16.142;2022-12-18T11:32:37;52.03;;;26.82;;
49109;SDS011;34921;52.320;16.142;2022-12-18T11:35:17;54.13;;;27.73;;
49109;SDS011;34921;52.320;16.142;2022-12-18T11:37:57;40.83;;;21.85;;
49109;SDS011;34921;52.320;16.142;2022-12-18T11:40:33;87.40;;;46.30;;
49109;SDS011;34921;52.320;16.142;2022-12-18T11:43:11;91.45;;;45.52;;
49109;SDS011;34921;52.320;16.142;2022-12-18T11:45:51;137.70;;;63.60;;
49109;SDS011;34921;52.320;16.142;2022-12-18T11:48:30;102.13;;;47.37;;
49109;SDS011;34921;52.320;16.142;2022-12-18T11:51:02;72.83;;;35.43;;
49109;SDS011;34921;52.320;16.142;2022-12-18T11:53:32;101.12;;;46.58;;
49109;SDS011;34921;52.320;16.142;2022-12-18T12:05:14;50.40;;;24.87;;
49109;SDS011;34921;52.320;16.142;2022-12-18T12:08:20;47.08;;;24.02;;
49109;SDS011;34921;52.320;16.142;2022-12-18T12:16:20;57.50;;;24.17;;
49109;SDS011;34921;52.320;16.142;2022-12-18T12:19:32;63.50;;;27.75;;
49109;SDS011;34921;52.320;16.142;2022-12-18T12:36:15;68.35;;;32.00;;
49109;SDS011;34921;52.320;16.142;2022-12-18T12:38:51;71.97;;;35.90;;
49109;SDS011;34921;52.320;16.142;2022-12-18T12:41:27;94.70;;;44.27;;
49109;SDS011;34921;52.320;16.142;2022-12-18T12:44:19;51.28;;;23.67;;
49109;SDS011;34921;52.320;16.142;2022-12-18T12:46:59;49.70;;;24.50;;
49109;SDS011;34921;52.320;16.142;2022-12-18T12:49:31;55.33;;;26.40;;
49109;SDS011;34921;52.320;16.142;2022-12-18T12:52:04;51.47;;;26.83;;
49109;SDS011;34921;52.320;16.142;2022-12-18T12:54:34;73.47;;;34.05;;
49109;SDS011;34921;52.320;16.142;2022-12-18T13:02:14;61.85;;;28.65;;
49109;SDS011;34921;52.320;16.142;2022-12-18T13:08:08;86.47;;;36.28;;
49109;SDS011;34921;52.320;16.142;2022-12-18T13:10:39;71.05;;;31.10;;
49109;SDS011;34921;52.320;16.142;2022-12-18T13:13:11;58.35;;;26.97;;
49109;SDS011;34921;52.320;16.142;2022-12-18T13:15:47;95.40;;;40.80;;
49109;SDS011;34921;52.320;16.142;2022-12-18T13:31:09;71.55;;;35.63;;
49109;SDS011;34921;52.320;16.142;2022-12-18T13:33:41;65.45;;;35.50;;
49109;SDS011;34921;52.320;16.142;2022-12-18T13:39:08;71.05;;;32.38;;
49109;SDS011;34921;52.320;16.142;2022-12-18T13:41:53;117.82;;;60.08;;
49109;SDS011;34921;52.320;16.142;2022-12-18T13:44:57;143.83;;;79.93;;
49109;SDS011;34921;52.320;16.142;2022-12-18T13:47:36;124.92;;;59.38;;
49109;SDS011;34921;52.320;16.142;2022-12-18T13:50:09;117.10;;;56.00;;
49109;SDS011;34921;52.320;16.142;2022-12-18T13:52:50;127.53;;;62.90;;
49109;SDS011;34921;52.320;16.142;2022-12-18T13:55:20;89.55;;;45.80;;
49109;SDS011;34921;52.320;16.142;2022-12-18T13:57:48;84.97;;;46.73;;
49109;SDS011;34921;52.320;16.142;2022-12-18T14:02:51;73.90;;;31.30;;
49109;SDS011;34921;52.320;16.142;2022-12-18T14:05:21;119.08;;;44.35;;
49109;SDS011;34921;52.320;16.142;2022-12-18T14:10:17;77.03;;;33.60;;
49109;SDS011;34921;52.320;16.142;2022-12-18T14:12:47;85.47;;;35.60;;
49109;SDS011;34921;52.320;16.142;2022-12-18T14:20:26;81.70;;;36.65;;
49109;SDS011;34921;52.320;16.142;2022-12-18T14:22:55;163.70;;;68.52;;
49109;SDS011;34921;52.320;16.142;2022-12-18T14:25:25;92.17;;;42.00;;
49109;SDS011;34921;52.320;16.142;2022-12-18T14:33:11;99.03;;;40.70;;
49109;SDS011;34921;52.320;16.142;2022-12-18T14:35:41;94.35;;;39.92;;
49109;SDS011;34921;52.320;16.142;2022-12-18T14:38:23;112.12;;;47.15;;
49109;SDS011;34921;52.320;16.142;2022-12-18T14:41:04;97.73;;;42.20;;
49109;SDS011;34921;52.320;16.142;2022-12-18T14:43:43;80.17;;;33.42;;
49109;SDS011;34921;52.320;16.142;2022-12-18T14:49:01;94.17;;;38.63;;
49109;SDS011;34921;52.320;16.142;2022-12-18T14:51:42;108.70;;;43.63;;
49109;SDS011;34921;52.320;16.142;2022-12-18T14:54:35;108.87;;;43.85;;
49109;SDS011;34921;52.320;16.142;2022-12-18T14:59:45;164.25;;;59.55;;
49109;SDS011;34921;52.320;16.142;2022-12-18T15:05:01;104.13;;;41.00;;
49109;SDS011;34921;52.320;16.142;2022-12-18T15:07:51;100.05;;;42.35;;
49109;SDS011;34921;52.320;16.142;2022-12-18T15:10:28;107.52;;;43.30;;
49109;SDS011;34921;52.320;16.142;2022-12-18T15:18:04;125.38;;;44.93;;
49109;SDS011;34921;52.320;16.142;2022-12-18T15:20:53;108.50;;;42.13;;
49109;SDS011;34921;52.320;16.142;2022-12-18T15:26:06;100.12;;;41.37;;
49109;SDS011;34921;52.320;16.142;2022-12-18T15:36:22;121.00;;;56.40;;
49109;SDS011;34921;52.320;16.142;2022-12-18T15:38:52;94.83;;;42.62;;
49109;SDS011;34921;52.320;16.142;2022-12-18T15:41:22;99.32;;;42.10;;
49109;SDS011;34921;52.320;16.142;2022-12-18T15:43:50;136.03;;;54.93;;
49109;SDS011;34921;52.320;16.142;2022-12-18T15:46:20;110.37;;;45.43;;
49109;SDS011;34921;52.320;16.142;2022-12-18T15:48:54;110.75;;;47.08;;
49109;SDS011;34921;52.320;16.142;2022-12-18T15:51:24;79.60;;;36.83;;
49109;SDS011;34921;52.320;16.142;2022-12-18T15:56:32;83.12;;;37.08;;
49109;SDS011;34921;52.320;16.142;2022-12-18T15:59:32;92.03;;;41.63;;
49109;SDS011;34921;52.320;16.142;2022-12-18T16:02:00;126.85;;;61.75;;
49109;SDS011;34921;52.320;16.142;2022-12-18T16:04:28;119.10;;;49.27;;
49109;SDS011;34921;52.320;16.142;2022-12-18T16:06:56;112.22;;;45.20;;
49109;SDS011;34921;52.320;16.142;2022-12-18T16:09:24;135.52;;;52.80;;
49109;SDS011;34921;52.320;16.142;2022-12-18T16:11:52;114.25;;;44.35;;
49109;SDS011;34921;52.320;16.142;2022-12-18T16:14:25;93.13;;;39.63;;
49109;SDS011;34921;52.320;16.142;2022-12-18T16:16:56;144.47;;;54.03;;
49109;SDS011;34921;52.320;16.142;2022-12-18T16:19:26;136.70;;;51.53;;
49109;SDS011;34921;52.320;16.142;2022-12-18T16:21:55;145.27;;;56.97;;
49109;SDS011;34921;52.320;16.142;2022-12-18T16:24:28;144.45;;;55.70;;
49109;SDS011;34921;52.320;16.142;2022-12-18T16:26:58;101.10;;;42.67;;
49109;SDS011;34921;52.320;16.142;2022-12-18T16:29:28;107.65;;;44.65;;
49109;SDS011;34921;52.320;16.142;2022-12-18T16:31:57;108.37;;;45.55;;
49109;SDS011;34921;52.320;16.142;2022-12-18T16:36:56;103.00;;;44.05;;
49109;SDS011;34921;52.320;16.142;2022-12-18T16:39:26;128.40;;;50.37;;
49109;SDS011;34921;52.320;16.142;2022-12-18T16:41:55;168.82;;;62.45;;
49109;SDS011;34921;52.320;16.142;2022-12-18T16:44:23;153.35;;;61.10;;
49109;SDS011;34921;52.320;16.142;2022-12-18T16:46:51;134.70;;;57.65;;
49109;SDS011;34921;52.320;16.142;2022-12-18T16:49:19;145.75;;;60.05;;
49109;SDS011;34921;52.320;16.142;2022-12-18T16:51:49;167.47;;;73.15;;
49109;SDS011;34921;52.320;16.142;2022-12-18T16:54:17;130.78;;;57.67;;
49109;SDS011;34921;52.320;16.142;2022-12-18T16:56:45;110.25;;;51.18;;
49109;SDS011;34921;52.320;16.142;2022-12-18T16:59:16;103.70;;;45.73;;
49109;SDS011;34921;52.320;16.142;2022-12-18T17:01:45;98.50;;;42.67;;
49109;SDS011;34921;52.320;16.142;2022-12-18T17:04:14;114.40;;;50.85;;
49109;SDS011;34921;52.320;16.142;2022-12-18T17:06:43;128.80;;;55.60;;
49109;SDS011;34921;52.320;16.142;2022-12-18T17:09:12;99.45;;;44.67;;
49109;SDS011;34921;52.320;16.142;2022-12-18T17:11:42;132.23;;;53.23;;
49109;SDS011;34921;52.320;16.142;2022-12-18T17:14:14;128.83;;;51.60;;
49109;SDS011;34921;52.320;16.142;2022-12-18T17:16:44;105.92;;;45.50;;
49109;SDS011;34921;52.320;16.142;2022-12-18T17:19:13;119.60;;;47.17;;